createdAt,value
2023-02-04T00:00:29.591Z,0.87
2023-02-04T00:02:57.789Z,1.50
2023-02-04T00:05:27.205Z,1.70
2023-02-04T00:07:55.211Z,2.13
2023-02-04T00:10:23.189Z,2.00
2023-02-04T00:12:51.142Z,1.43
2023-02-04T00:15:19.172Z,2.90
2023-02-04T00:17:47.137Z,3.53
2023-02-04T00:20:15.106Z,1.37
2023-02-04T00:22:44.451Z,2.17
2023-02-04T00:25:12.534Z,2.30
2023-02-04T00:27:40.491Z,0.97
2023-02-04T00:30:09.676Z,0.80
2023-02-04T00:32:37.678Z,1.53
2023-02-04T00:35:05.998Z,3.90
2023-02-04T00:37:34.046Z,0.77
2023-02-04T00:40:03.379Z,1.80
2023-02-04T00:42:31.388Z,2.47
2023-02-04T00:44:59.468Z,4.77
2023-02-04T00:47:27.414Z,0.83
2023-02-04T00:49:55.406Z,0.70
2023-02-04T00:52:23.398Z,1.37
2023-02-04T00:54:51.355Z,0.83
2023-02-04T00:57:20.670Z,2.07
2023-02-04T00:59:48.675Z,3.10
2023-02-04T01:02:18.360Z,1.00
2023-02-04T01:04:46.556Z,0.90
2023-02-04T01:07:14.561Z,0.87
2023-02-04T01:09:42.556Z,1.00
2023-02-04T01:12:10.513Z,0.97
2023-02-04T01:14:39.853Z,1.77
2023-02-04T01:17:07.854Z,0.93
2023-02-04T01:19:35.810Z,1.43
2023-02-04T01:22:03.741Z,1.27
2023-02-04T01:24:31.930Z,1.43
2023-02-04T01:26:59.911Z,1.43
2023-02-04T01:29:27.912Z,4.27
2023-02-04T01:31:57.254Z,2.43
2023-02-04T01:34:25.966Z,2.23
2023-02-04T01:36:53.935Z,1.63
2023-02-04T01:39:21.920Z,3.87
2023-02-04T01:41:49.900Z,1.30
2023-02-04T01:44:17.915Z,1.50
2023-02-04T01:46:45.887Z,3.80
2023-02-04T01:49:15.450Z,1.40
2023-02-04T01:51:43.530Z,0.80
2023-02-04T01:54:12.620Z,1.13
2023-02-04T01:56:40.581Z,3.70
2023-02-04T01:59:12.314Z,1.23
2023-02-04T02:01:41.828Z,2.33
2023-02-04T02:04:10.016Z,1.43
2023-02-04T02:06:40.203Z,4.20
2023-02-04T02:09:08.148Z,3.30
2023-02-04T02:11:36.054Z,2.13
2023-02-04T02:14:04.106Z,0.70
2023-02-04T02:16:32.102Z,2.07
2023-02-04T02:19:00.112Z,3.90
2023-02-04T02:21:32.984Z,3.47
2023-02-04T02:24:03.366Z,0.63
2023-02-04T02:26:31.373Z,3.43
2023-02-04T02:28:59.365Z,0.90
2023-02-04T02:31:27.384Z,2.57
2023-02-04T02:33:55.423Z,2.13
2023-02-04T02:36:23.728Z,1.47
2023-02-04T02:38:51.752Z,2.70
2023-02-04T02:41:21.096Z,1.77
2023-02-04T02:43:49.052Z,2.97
2023-02-04T02:46:17.114Z,2.30
2023-02-04T02:48:45.134Z,2.23
2023-02-04T02:51:13.151Z,1.73
2023-02-04T02:53:41.112Z,1.03
2023-02-04T02:56:09.105Z,2.73
2023-02-04T02:58:38.435Z,1.63
2023-02-04T03:01:07.323Z,3.93
2023-02-04T03:03:36.502Z,4.77
2023-02-04T03:06:06.587Z,1.10
2023-02-04T03:08:34.647Z,1.23
2023-02-04T03:11:02.618Z,2.17
2023-02-04T03:13:30.582Z,1.63
2023-02-04T03:15:59.977Z,0.83
2023-02-04T03:18:28.193Z,1.93
2023-02-04T03:20:56.140Z,0.60
2023-02-04T03:23:24.109Z,1.40
2023-02-04T03:25:52.681Z,1.47
2023-02-04T03:28:20.612Z,2.67
2023-02-04T03:30:55.772Z,1.67
2023-02-04T03:33:26.278Z,0.50
2023-02-04T03:35:54.248Z,1.87
2023-02-04T03:38:22.194Z,0.60
2023-02-04T03:40:50.182Z,2.53
2023-02-04T03:43:18.189Z,1.70
2023-02-04T03:45:46.211Z,1.20
2023-02-04T03:48:14.212Z,1.00
2023-02-04T03:50:43.589Z,1.23
2023-02-04T03:53:11.581Z,3.37
2023-02-04T03:55:39.553Z,2.40
2023-02-04T03:58:07.537Z,3.23
2023-02-04T04:00:35.522Z,2.83
2023-02-04T04:03:03.512Z,0.77
2023-02-04T04:05:31.544Z,0.93
2023-02-04T04:08:00.880Z,1.67
2023-02-04T04:10:29.871Z,1.43
2023-02-04T04:12:57.960Z,1.70
2023-02-04T04:15:26.582Z,2.63
2023-02-04T04:17:54.534Z,2.70
2023-02-04T04:20:25.436Z,1.30
2023-02-04T04:22:53.413Z,2.70
2023-02-04T04:25:22.727Z,2.27
2023-02-04T04:27:50.771Z,1.10
2023-02-04T04:30:19.313Z,1.43
2023-02-04T04:32:47.281Z,3.20
2023-02-04T04:35:15.409Z,1.37
2023-02-04T04:37:43.358Z,1.73
2023-02-04T04:40:13.023Z,3.53
2023-02-04T04:42:42.418Z,0.97
2023-02-04T04:45:11.103Z,2.83
2023-02-04T04:47:39.047Z,2.60
2023-02-04T04:50:07.847Z,2.10
2023-02-04T04:52:35.823Z,2.03
2023-02-04T04:55:03.837Z,0.80
2023-02-04T04:57:31.813Z,1.33
2023-02-04T05:00:01.118Z,1.53
2023-02-04T05:02:29.079Z,1.50
2023-02-04T05:04:57.092Z,1.57
2023-02-04T05:07:25.129Z,2.27
2023-02-04T05:09:53.118Z,1.20
2023-02-04T05:12:21.110Z,3.00
2023-02-04T05:14:49.082Z,1.80
2023-02-04T05:17:18.448Z,2.00
2023-02-04T05:19:46.433Z,3.27
2023-02-04T05:22:14.411Z,0.90
2023-02-04T05:24:42.519Z,1.80
2023-02-04T05:27:10.531Z,0.93
2023-02-04T05:29:38.508Z,1.80
2023-02-04T05:32:06.584Z,1.60
2023-02-04T05:34:35.896Z,0.60
2023-02-04T05:37:03.876Z,1.30
2023-02-04T05:39:31.862Z,1.73
2023-02-04T05:41:59.899Z,1.73
2023-02-04T05:44:27.878Z,1.40
2023-02-04T05:46:55.897Z,1.23
2023-02-04T05:49:24.819Z,2.60
2023-02-04T05:51:54.221Z,0.50
2023-02-04T05:54:22.190Z,0.77
2023-02-04T05:56:51.815Z,0.70
2023-02-04T05:59:19.843Z,1.63
2023-02-04T06:01:47.784Z,1.97
2023-02-04T06:04:16.654Z,2.90
2023-02-04T06:06:44.651Z,1.90
2023-02-04T06:09:14.002Z,1.60
2023-02-04T06:11:41.962Z,1.70
2023-02-04T06:14:10.763Z,1.13
2023-02-04T06:16:38.835Z,0.70
2023-02-04T06:19:06.865Z,6.20
2023-02-04T06:21:34.806Z,1.83
2023-02-04T06:24:04.245Z,2.33
2023-02-04T06:26:34.734Z,0.50
2023-02-04T06:29:02.763Z,1.37
2023-02-04T06:31:30.807Z,1.27
2023-02-04T06:33:58.838Z,0.53
2023-02-04T06:36:26.835Z,7.40
2023-02-04T06:38:54.804Z,2.13
2023-02-04T06:41:22.792Z,3.20
2023-02-04T06:43:52.107Z,0.60
2023-02-04T06:46:20.137Z,0.50
2023-02-04T06:48:48.148Z,1.43
2023-02-04T06:51:16.480Z,0.67
2023-02-04T06:53:45.979Z,1.70
2023-02-04T06:56:14.068Z,5.50
2023-02-04T06:58:42.058Z,1.03
2023-02-04T07:01:11.436Z,2.07
2023-02-04T07:03:39.638Z,0.40
2023-02-04T07:06:07.711Z,0.63
2023-02-04T07:08:35.680Z,2.57
2023-02-04T07:11:03.821Z,0.67
2023-02-04T07:13:31.787Z,1.00
2023-02-04T07:15:59.782Z,1.10
2023-02-04T07:18:29.456Z,3.87
2023-02-04T07:20:57.449Z,4.47
2023-02-04T07:23:26.733Z,1.70
2023-02-04T07:25:56.101Z,0.53
2023-02-04T07:28:24.082Z,3.80
2023-02-04T07:30:52.144Z,0.67
2023-02-04T07:33:20.316Z,1.77
2023-02-04T07:35:49.692Z,0.60
2023-02-04T07:38:17.702Z,3.23
2023-02-04T07:40:46.331Z,0.83
2023-02-04T07:43:14.684Z,5.20
2023-02-04T07:45:42.937Z,1.03
2023-02-04T07:48:11.740Z,1.07
2023-02-04T07:50:39.723Z,1.40
2023-02-04T07:53:09.090Z,1.00
2023-02-04T07:55:37.355Z,0.63
2023-02-04T07:58:05.385Z,0.40
2023-02-04T08:00:33.818Z,1.33
2023-02-04T08:03:02.048Z,4.43
2023-02-04T08:05:30.450Z,2.97
2023-02-04T08:07:58.596Z,0.70
2023-02-04T08:10:27.996Z,0.77
2023-02-04T08:12:56.004Z,1.17
2023-02-04T08:15:24.044Z,0.73
2023-02-04T08:17:52.046Z,0.60
2023-02-04T08:20:20.202Z,1.17
2023-02-04T08:22:48.553Z,1.73
2023-02-04T08:25:16.973Z,0.77
2023-02-04T08:27:46.410Z,5.20
2023-02-04T08:30:14.662Z,2.30
2023-02-04T08:32:42.673Z,0.40
2023-02-04T08:35:10.956Z,0.40
2023-02-04T08:37:38.985Z,1.60
2023-02-04T08:40:07.797Z,0.67
2023-02-04T08:42:35.921Z,0.97
2023-02-04T08:45:05.608Z,0.30
2023-02-04T08:47:33.590Z,0.30
2023-02-04T08:50:01.741Z,3.40
2023-02-04T08:52:29.973Z,0.40
2023-02-04T08:54:57.984Z,0.43
2023-02-04T08:57:26.134Z,1.13
2023-02-04T08:59:54.128Z,1.40
2023-02-04T09:02:23.532Z,0.60
2023-02-04T09:04:51.673Z,0.60
2023-02-04T09:07:19.778Z,0.87
2023-02-04T09:09:47.828Z,1.37
2023-02-04T09:12:15.879Z,1.10
2023-02-04T09:14:43.890Z,0.50
2023-02-04T09:17:12.881Z,1.50
2023-02-04T09:19:42.318Z,1.10
2023-02-04T09:22:10.319Z,0.50
2023-02-04T09:24:38.332Z,2.10
2023-02-04T09:27:06.470Z,2.10
2023-02-04T09:29:34.432Z,1.07
2023-02-04T09:32:02.490Z,0.60
2023-02-04T09:34:30.688Z,1.17
2023-02-04T09:37:00.097Z,0.70
2023-02-04T09:39:28.126Z,0.60
2023-02-04T09:41:56.142Z,0.53
2023-02-04T09:44:25.385Z,2.20
2023-02-04T09:46:54.304Z,1.97
2023-02-04T09:49:22.473Z,3.57
2023-02-04T09:51:50.411Z,1.10
2023-02-04T09:54:21.429Z,0.50
2023-02-04T09:56:50.765Z,0.83
2023-02-04T09:59:19.869Z,0.63
2023-02-04T10:01:48.379Z,1.93
2023-02-04T10:04:16.552Z,0.50
2023-02-04T10:06:44.511Z,0.50
2023-02-04T10:09:12.805Z,0.83
2023-02-04T10:11:42.314Z,2.10
2023-02-04T10:14:13.056Z,0.50
2023-02-04T10:16:42.475Z,0.70
2023-02-04T10:19:14.119Z,0.60
2023-02-04T10:21:42.334Z,0.40
2023-02-04T10:24:13.856Z,2.47
2023-02-04T10:26:43.315Z,0.77
2023-02-04T10:29:14.962Z,0.50
2023-02-04T10:31:44.104Z,0.30
2023-02-04T10:34:14.162Z,0.80
2023-02-04T10:36:42.841Z,1.23
2023-02-04T10:39:15.616Z,0.63
2023-02-04T10:41:49.903Z,0.93
2023-02-04T10:44:19.319Z,1.20
2023-02-04T10:46:47.267Z,1.80
2023-02-04T10:49:22.787Z,0.50
2023-02-04T10:51:51.494Z,0.87
2023-02-04T10:54:31.478Z,0.70
2023-02-04T10:57:10.171Z,0.67
2023-02-04T10:59:38.313Z,1.00
2023-02-04T11:02:37.270Z,0.60
2023-02-04T11:05:05.871Z,0.63
2023-02-04T11:07:33.804Z,0.63
2023-02-04T11:10:01.790Z,1.90
2023-02-04T11:12:41.234Z,1.70
2023-02-04T11:15:24.586Z,2.53
2023-02-04T11:18:03.346Z,2.47
2023-02-04T11:20:32.803Z,1.50
2023-02-04T11:23:16.012Z,0.70
2023-02-04T11:25:44.171Z,1.33
2023-02-04T11:28:17.215Z,1.60
2023-02-04T11:30:45.296Z,0.80
2023-02-04T11:33:24.238Z,1.13
2023-02-04T11:36:04.650Z,0.87
2023-02-04T11:38:32.955Z,2.90
2023-02-04T11:41:01.124Z,1.10
2023-02-04T11:43:31.266Z,1.20
2023-02-04T11:46:03.790Z,0.67
2023-02-04T11:48:31.843Z,1.23
2023-02-04T11:51:00.384Z,1.20
2023-02-04T11:53:30.424Z,0.67
2023-02-04T11:55:58.434Z,3.20
2023-02-04T11:58:26.942Z,1.40
2023-02-04T12:00:56.251Z,3.57
2023-02-04T12:03:26.187Z,2.80
2023-02-04T12:05:55.362Z,5.40
2023-02-04T12:08:28.404Z,1.40
2023-02-04T12:11:08.377Z,1.67
2023-02-04T12:13:46.375Z,0.77
2023-02-04T12:16:15.860Z,0.90
2023-02-04T12:18:43.883Z,0.80
2023-02-04T12:21:11.841Z,1.73
2023-02-04T12:23:40.117Z,1.33
2023-02-04T12:26:08.683Z,3.83
2023-02-04T12:28:36.666Z,0.67
2023-02-04T12:31:04.928Z,0.90
2023-02-04T12:33:34.372Z,1.93
2023-02-04T12:36:02.338Z,4.87
2023-02-04T12:38:30.397Z,1.57
2023-02-04T12:40:58.381Z,0.77
2023-02-04T12:43:28.350Z,1.20
2023-02-04T12:45:56.731Z,1.50
2023-02-04T12:48:26.027Z,1.40
2023-02-04T12:50:55.499Z,2.43
2023-02-04T12:53:23.672Z,1.60
2023-02-04T12:55:51.700Z,0.67
2023-02-04T12:58:19.715Z,0.70
2023-02-04T13:00:48.024Z,1.13
2023-02-04T13:03:16.039Z,2.73
2023-02-04T13:05:43.991Z,0.80
2023-02-04T13:08:13.474Z,1.90
2023-02-04T13:10:41.451Z,1.10
2023-02-04T13:13:09.460Z,2.57
2023-02-04T13:15:37.743Z,1.47
2023-02-04T13:18:05.820Z,0.50
2023-02-04T13:20:33.777Z,1.43
2023-02-04T13:23:01.983Z,1.20
2023-02-04T13:25:31.812Z,1.13
2023-02-04T13:28:00.062Z,2.33
2023-02-04T13:30:28.343Z,0.67
2023-02-04T13:32:56.380Z,1.40
2023-02-04T13:35:25.492Z,2.73
2023-02-04T13:37:55.700Z,0.80
2023-02-04T13:40:24.482Z,0.60
2023-02-04T13:42:53.967Z,0.63
2023-02-04T13:45:22.102Z,1.23
2023-02-04T13:47:50.193Z,1.47
2023-02-04T13:50:18.524Z,0.87
2023-02-04T13:52:46.470Z,1.53
2023-02-04T13:55:14.420Z,0.97
2023-02-04T13:57:42.678Z,1.47
2023-02-04T14:00:13.701Z,3.80
2023-02-04T14:02:43.015Z,1.00
2023-02-04T14:05:11.057Z,0.90
2023-02-04T14:07:39.060Z,0.73
2023-02-04T14:10:07.863Z,0.80
2023-02-04T14:12:35.869Z,0.60
2023-02-04T14:15:03.903Z,3.97
2023-02-04T14:17:33.569Z,1.23
2023-02-04T14:20:01.564Z,1.00
2023-02-04T14:22:29.529Z,0.50
2023-02-04T14:24:57.695Z,2.50
2023-02-04T14:27:25.859Z,0.90
2023-02-04T14:29:53.817Z,1.40
2023-02-04T14:32:22.092Z,1.33
2023-02-04T14:34:51.468Z,1.07
2023-02-04T14:37:19.447Z,1.53
2023-02-04T14:39:47.711Z,1.90
2023-02-04T14:42:15.712Z,0.77
2023-02-04T14:44:43.720Z,1.77
2023-02-04T14:47:12.065Z,1.27
2023-02-04T14:49:40.067Z,0.53
2023-02-04T14:52:11.341Z,0.60
2023-02-04T14:54:39.629Z,0.70
2023-02-04T14:57:11.257Z,0.60
2023-02-04T14:59:39.397Z,1.03
2023-02-04T15:02:07.849Z,0.60
2023-02-04T15:04:35.889Z,1.27
2023-02-04T15:07:03.981Z,0.63
2023-02-04T15:09:33.594Z,3.13
2023-02-04T15:12:01.549Z,0.70
2023-02-04T15:14:29.935Z,0.43
2023-02-04T15:16:58.064Z,0.50
2023-02-04T15:19:26.140Z,0.80
2023-02-04T15:21:54.541Z,0.43
2023-02-04T15:24:22.988Z,0.73
2023-02-04T15:26:53.696Z,1.37
2023-02-04T15:29:21.682Z,0.57
2023-02-04T15:31:49.821Z,1.17
2023-02-04T15:34:17.795Z,0.67
2023-02-04T15:36:45.760Z,1.07
2023-02-04T15:39:13.910Z,2.10
2023-02-04T15:41:41.898Z,0.97
2023-02-04T15:44:12.185Z,0.60
2023-02-04T15:46:40.196Z,0.70
2023-02-04T15:49:09.128Z,0.90
2023-02-04T15:51:37.065Z,3.03
2023-02-04T15:54:05.514Z,1.87
2023-02-04T15:56:33.448Z,0.63
2023-02-04T15:59:02.460Z,0.90
2023-02-04T16:01:32.299Z,1.63
2023-02-04T16:04:00.794Z,0.50
2023-02-04T16:06:28.822Z,1.27
2023-02-04T16:08:57.168Z,0.80
2023-02-04T16:11:25.135Z,1.57
2023-02-04T16:13:53.136Z,0.77
2023-02-04T16:16:21.579Z,1.00
2023-02-04T16:18:51.010Z,1.43
2023-02-04T16:21:18.972Z,0.60
2023-02-04T16:23:47.625Z,0.90
2023-02-04T16:26:15.608Z,0.80
2023-02-04T16:28:47.222Z,0.67
2023-02-04T16:31:15.432Z,0.50
2023-02-04T16:33:43.608Z,1.13
2023-02-04T16:36:13.735Z,1.63
2023-02-04T16:38:43.125Z,0.50
2023-02-04T16:41:11.347Z,0.50
2023-02-04T16:43:39.378Z,1.17
2023-02-04T16:46:07.559Z,1.70
2023-02-04T16:48:36.408Z,3.50
2023-02-04T16:51:04.554Z,1.20
2023-02-04T16:53:34.058Z,1.30
2023-02-04T16:56:02.916Z,1.33
2023-02-04T16:58:30.944Z,0.43
2023-02-04T17:00:59.930Z,0.80
2023-02-04T17:03:28.473Z,0.73
2023-02-04T17:05:56.476Z,1.17
2023-02-04T17:08:24.751Z,1.57
2023-02-04T17:11:11.497Z,1.63
2023-02-04T17:13:39.634Z,1.17
2023-02-04T17:16:07.926Z,2.13
2023-02-04T17:18:35.958Z,0.60
2023-02-04T17:21:04.283Z,0.60
2023-02-04T17:23:33.292Z,1.43
2023-02-04T17:26:02.668Z,1.00
2023-02-04T17:28:30.779Z,0.93
2023-02-04T17:30:58.943Z,0.80
2023-02-04T17:33:28.243Z,4.33
2023-02-04T17:35:56.296Z,1.03
2023-02-04T17:38:27.024Z,0.80
2023-02-04T17:40:56.308Z,2.33
2023-02-04T17:43:25.940Z,0.60
2023-02-04T17:45:54.010Z,0.50
2023-02-04T17:48:21.963Z,0.83
2023-02-04T17:50:49.972Z,1.37
2023-02-04T17:53:17.954Z,0.93
2023-02-04T17:55:46.070Z,1.77
2023-02-04T17:58:15.274Z,0.60
2023-02-04T18:00:46.095Z,0.40
2023-02-04T18:03:14.711Z,3.17
2023-02-04T18:05:45.761Z,1.40
2023-02-04T18:08:15.458Z,0.50
2023-02-04T18:10:43.912Z,4.23
2023-02-04T18:13:14.680Z,0.90
2023-02-04T18:15:44.056Z,1.57
2023-02-04T18:18:20.424Z,1.63
2023-02-04T18:20:48.513Z,3.70
2023-02-04T18:23:17.990Z,1.27
2023-02-04T18:25:48.750Z,2.50
2023-02-04T18:28:18.086Z,2.20
2023-02-04T18:30:48.213Z,4.47
2023-02-04T18:33:17.961Z,2.43
2023-02-04T18:35:48.047Z,4.10
2023-02-04T18:38:24.298Z,5.17
2023-02-04T18:40:52.900Z,3.30
2023-02-04T18:43:25.460Z,5.43
2023-02-04T18:45:54.938Z,9.20
2023-02-04T18:48:53.419Z,4.80
2023-02-04T18:51:25.405Z,10.40
2023-02-04T18:53:53.841Z,4.50
2023-02-04T18:56:21.766Z,7.53
2023-02-04T18:58:51.090Z,6.97
2023-02-04T19:01:24.084Z,6.77
2023-02-04T19:03:53.461Z,9.93
2023-02-04T19:06:26.798Z,11.87
2023-02-04T19:08:55.427Z,9.63
2023-02-04T19:11:28.287Z,7.60
2023-02-04T19:13:57.481Z,11.97
2023-02-04T19:16:34.320Z,8.53
2023-02-04T19:19:02.342Z,10.57
2023-02-04T19:21:31.357Z,6.80
2023-02-04T19:24:02.974Z,13.93
2023-02-04T19:26:34.912Z,12.80
2023-02-04T19:29:04.034Z,10.50
2023-02-04T19:31:34.723Z,10.17
2023-02-04T19:34:03.237Z,9.73
2023-02-04T19:36:35.093Z,11.57
2023-02-04T19:39:03.843Z,7.93
2023-02-04T19:41:36.760Z,7.73
2023-02-04T19:44:38.458Z,7.40
2023-02-04T19:47:23.567Z,9.57
2023-02-04T19:49:51.599Z,12.57
2023-02-04T19:52:36.157Z,7.60
2023-02-04T19:55:31.917Z,7.40
2023-02-04T19:58:01.644Z,9.03
2023-02-04T20:00:44.805Z,8.73
2023-02-04T20:03:38.846Z,10.93
2023-02-04T20:06:27.569Z,11.23
2023-02-04T20:09:00.453Z,9.93
2023-02-04T20:11:41.697Z,8.93
2023-02-04T20:14:36.880Z,8.37
2023-02-04T20:17:29.426Z,9.03
2023-02-04T20:19:58.905Z,7.63
2023-02-04T20:22:47.201Z,11.60
2023-02-04T20:25:45.602Z,9.57
2023-02-04T20:28:42.016Z,8.20
2023-02-04T20:31:25.895Z,10.03
2023-02-04T20:33:54.900Z,7.80
2023-02-04T20:36:38.617Z,11.93
2023-02-04T20:39:37.244Z,11.37
2023-02-04T20:42:22.109Z,9.13
2023-02-04T20:44:50.109Z,9.93
2023-02-04T20:47:19.566Z,12.73
2023-02-04T20:49:53.313Z,5.93
2023-02-04T20:53:10.107Z,6.90
2023-02-04T20:55:39.501Z,5.97
2023-02-04T20:58:17.056Z,5.87
2023-02-04T21:00:46.322Z,6.73
2023-02-04T21:03:22.833Z,7.40
2023-02-04T21:05:51.575Z,7.67
2023-02-04T21:08:27.660Z,6.60
2023-02-04T21:10:57.534Z,5.77
2023-02-04T21:13:25.578Z,6.97
2023-02-04T21:15:53.584Z,7.10
2023-02-04T21:18:21.926Z,6.10
2023-02-04T21:20:49.914Z,6.53
2023-02-04T21:23:18.816Z,6.57
2023-02-04T21:25:46.887Z,7.53
2023-02-04T21:28:16.316Z,6.03
2023-02-04T21:30:44.448Z,4.63
2023-02-04T21:33:12.503Z,8.77
2023-02-04T21:35:40.598Z,4.63
2023-02-04T21:38:08.632Z,4.17
2023-02-04T21:40:37.692Z,8.37
2023-02-04T21:43:07.596Z,7.53
2023-02-04T21:45:37.686Z,4.87
2023-02-04T21:48:05.959Z,3.57
2023-02-04T21:50:34.342Z,6.37
2023-02-04T21:53:02.378Z,4.50
2023-02-04T21:55:30.441Z,3.57
2023-02-04T21:57:58.519Z,3.90
2023-02-04T22:00:26.696Z,5.47
2023-02-04T22:02:56.020Z,7.07
2023-02-04T22:05:24.135Z,7.87
2023-02-04T22:07:52.193Z,6.00
2023-02-04T22:10:21.138Z,3.97
2023-02-04T22:12:49.173Z,3.53
2023-02-04T22:15:17.808Z,3.80
2023-02-04T22:17:45.851Z,3.67
2023-02-04T22:20:16.661Z,3.93
2023-02-04T22:22:44.951Z,3.53
2023-02-04T22:25:13.162Z,2.33
2023-02-04T22:27:41.481Z,2.70
2023-02-04T22:30:10.563Z,3.17
2023-02-04T22:32:38.577Z,2.53
2023-02-04T22:35:07.504Z,2.23
2023-02-04T22:37:36.882Z,3.00
2023-02-04T22:40:05.249Z,2.73
2023-02-04T22:42:33.369Z,3.93
2023-02-04T22:45:02.515Z,4.00
2023-02-04T22:47:30.534Z,1.93
2023-02-04T22:49:58.694Z,2.53
2023-02-04T22:52:26.709Z,3.90
2023-02-04T22:54:56.209Z,3.30
2023-02-04T22:57:24.384Z,3.37
2023-02-04T22:59:52.332Z,2.50
2023-02-04T23:02:20.356Z,3.83
2023-02-04T23:04:48.561Z,5.00
2023-02-04T23:07:16.512Z,2.53
2023-02-04T23:09:44.472Z,2.73
2023-02-04T23:12:13.888Z,3.27
2023-02-04T23:14:42.667Z,1.70
2023-02-04T23:17:10.776Z,3.20
2023-02-04T23:19:38.873Z,1.53
2023-02-04T23:22:06.973Z,1.87
2023-02-04T23:24:34.918Z,2.00
2023-02-04T23:27:03.290Z,2.20
2023-02-04T23:29:35.201Z,2.27
2023-02-04T23:32:03.323Z,2.27
2023-02-04T23:34:31.400Z,2.07
2023-02-04T23:36:59.445Z,1.53
2023-02-04T23:39:27.424Z,2.67
2023-02-04T23:41:55.387Z,1.80
2023-02-04T23:44:23.325Z,2.07
2023-02-04T23:46:52.672Z,1.40
2023-02-04T23:49:20.631Z,2.03
2023-02-04T23:51:48.655Z,1.17
2023-02-04T23:54:16.677Z,2.07
2023-02-04T23:56:44.705Z,1.17
2023-02-04T23:59:12.707Z,1.13
